Time;durP1;ratioP1;P1;durP2;ratioP2;P2;SDS_P1;SDS_P2;PMS_P1;PMS_P2;Temp;Humidity;BMP_temperature;BMP_pressure;BME280_temperature;BME280_humidity;BME280_pressure;Samples;Min_cycle;Max_cycle;Signal;HPM_P1;HPM_P2
2021/11/17 02:28:15;;;;;;;6.45;4.97;;;;;;;6.17;92.68;97073.69;5093673;28;20867;-65
2021/11/17 02:30:48;;;;;;;5.53;4.60;;;;;;;6.13;92.41;97075.84;5092350;28;20394;-65
2021/11/17 02:33:42;;;;;;;5.82;4.82;;;;;;;6.13;93.86;97069.84;5091845;28;20905;-66
2021/11/17 02:36:57;;;;;;;6.00;5.40;;;;;;;6.18;93.58;97067.50;5091830;28;20414;-66
2021/11/17 02:39:55;;;;;;;5.72;5.07;;;;;;;6.12;93.81;97061.25;5105861;28;20738;-65
2021/11/17 02:42:36;;;;;;;6.23;5.30;;;;;;;6.19;93.87;97071.66;5091471;28;20394;-65
2021/11/17 02:45:26;;;;;;;6.60;5.67;;;;;;;6.20;93.44;97068.88;5092564;28;20877;-65
2021/11/17 02:48:09;;;;;;;6.35;4.95;;;;;;;6.25;92.72;97069.09;5106050;28;20388;-65
2021/11/17 02:51:13;;;;;;;7.13;5.32;;;;;;;6.10;93.58;97073.63;5092168;28;20390;-65
2021/11/17 02:53:57;;;;;;;6.43;5.30;;;;;;;6.23;92.40;97075.53;5084237;28;20402;-65
2021/11/17 02:56:25;;;;;;;6.10;5.00;;;;;;;6.04;93.24;97074.41;5077383;28;20465;-65
2021/11/17 02:59:15;;;;;;;5.67;4.97;;;;;;;5.96;93.97;97073.75;5091978;28;20789;-65
2021/11/17 03:01:49;;;;;;;6.38;5.35;;;;;;;6.09;94.40;97074.63;5095688;28;20952;-65
2021/11/17 03:04:27;;;;;;;7.45;5.28;;;;;;;5.99;96.24;97065.56;5105479;28;20888;-65
2021/11/17 03:07:08;;;;;;;6.85;5.35;;;;;;;5.98;96.71;97069.16;5111881;28;20469;-65
2021/11/17 03:09:45;;;;;;;7.30;5.30;;;;;;;5.90;97.54;97069.31;5099513;28;20396;-65
2021/11/17 03:12:37;;;;;;;7.15;5.40;;;;;;;5.96;96.87;97076.34;5112173;28;20400;-65
2021/11/17 03:15:14;;;;;;;6.35;5.18;;;;;;;5.83;97.74;97074.44;5079477;28;20405;-65
2021/11/17 03:18:02;;;;;;;6.28;5.05;;;;;;;5.87;97.92;97080.88;5099097;28;20541;-65
2021/11/17 03:20:51;;;;;;;7.43;5.78;;;;;;;5.86;98.63;97074.84;5086587;28;20419;-65
2021/11/17 03:23:32;;;;;;;7.55;5.90;;;;;;;5.81;99.32;97073.81;5090119;28;20412;-65
2021/11/17 03:26:19;;;;;;;9.20;5.50;;;;;;;5.79;99.40;97073.22;5091810;28;20396;-67
2021/11/17 03:28:44;;;;;;;6.97;5.22;;;;;;;5.84;99.42;97081.25;5107332;28;20388;-65
2021/11/17 03:31:15;;;;;;;8.07;5.63;;;;;;;5.81;99.92;97079.00;5111314;28;20537;-65
2021/11/17 03:33:47;;;;;;;8.03;6.27;;;;;;;5.84;100.00;97078.63;5089502;28;20523;-65
2021/11/17 03:36:36;;;;;;;8.23;6.25;;;;;;;5.85;100.00;97073.22;5091723;28;20962;-65
2021/11/17 03:39:46;;;;;;;7.85;6.15;;;;;;;5.83;100.00;97066.63;5091244;28;20759;-67
2021/11/17 03:42:30;;;;;;;7.63;5.87;;;;;;;5.94;100.00;97079.13;5092139;28;20483;-65
2021/11/17 03:45:15;;;;;;;7.30;6.10;;;;;;;6.04;98.95;97071.78;5111501;28;20385;-65
2021/11/17 03:47:40;;;;;;;7.73;5.73;;;;;;;5.82;100.00;97078.00;5093535;28;20744;-65
2021/11/17 03:50:15;;;;;;;8.00;6.13;;;;;;;5.78;100.00;97080.19;5102674;28;20435;-65
2021/11/17 03:52:55;;;;;;;8.50;6.33;;;;;;;5.71;100.00;97079.34;5091947;28;20426;-65
2021/11/17 03:55:38;;;;;;;8.18;6.25;;;;;;;5.75;100.00;97077.97;5093112;28;20390;-66
2021/11/17 03:58:22;;;;;;;8.43;6.00;;;;;;;5.67;100.00;97085.91;5111646;28;20473;-67
2021/11/17 04:01:06;;;;;;;7.97;6.10;;;;;;;5.73;100.00;97079.97;5098632;28;20410;-65
2021/11/17 04:03:47;;;;;;;7.17;6.07;;;;;;;5.75;100.00;97080.56;5094977;28;20430;-65
2021/11/17 04:06:41;;;;;;;7.60;6.22;;;;;;;5.69;100.00;97083.91;5095088;28;20413;-65
2021/11/17 04:09:18;;;;;;;8.63;6.28;;;;;;;5.73;100.00;97085.16;5097860;28;20408;-65
2021/11/17 04:11:49;;;;;;;8.15;6.28;;;;;;;5.79;100.00;97083.59;5102391;28;20931;-66
2021/11/17 04:14:23;;;;;;;8.40;6.55;;;;;;;5.80;100.00;97086.00;5095187;28;20386;-65
2021/11/17 04:17:10;;;;;;;8.45;6.30;;;;;;;5.71;100.00;97087.13;5095003;28;20393;-66
2021/11/17 04:20:14;;;;;;;7.75;6.32;;;;;;;5.77;100.00;97083.78;5087610;28;20407;-65
2021/11/17 04:22:51;;;;;;;7.35;6.22;;;;;;;5.83;100.00;97079.63;5113548;28;20411;-65
2021/11/17 04:25:49;;;;;;;9.38;6.40;;;;;;;5.67;100.00;97075.50;5111133;28;20392;-66
2021/11/17 04:28:23;;;;;;;7.97;6.28;;;;;;;5.63;100.00;97078.69;5114952;28;20398;-65
2021/11/17 04:31:07;;;;;;;7.75;5.95;;;;;;;5.68;100.00;97081.53;5105776;28;20390;-65
2021/11/17 04:33:44;;;;;;;7.53;5.88;;;;;;;5.79;100.00;97083.59;5093886;28;20493;-65
2021/11/17 04:36:19;;;;;;;8.18;6.28;;;;;;;5.78;100.00;97076.78;5103013;28;20402;-65
2021/11/17 04:38:50;;;;;;;7.63;5.68;;;;;;;5.79;100.00;97076.63;5095024;28;20885;-65
2021/11/17 04:41:30;;;;;;;6.95;5.78;;;;;;;5.68;100.00;97079.72;5094885;28;20405;-65
2021/11/17 04:44:01;;;;;;;7.73;5.57;;;;;;;5.68;100.00;97074.53;5095392;28;20951;-65
2021/11/17 04:46:51;;;;;;;7.28;5.55;;;;;;;5.74;100.00;97072.97;5100570;28;20742;-65
2021/11/17 04:49:28;;;;;;;7.63;5.82;;;;;;;5.63;100.00;97074.25;5094772;28;20394;-65
2021/11/17 04:51:56;;;;;;;7.15;5.75;;;;;;;5.53;100.00;97080.78;5094399;28;20443;-65
2021/11/17 04:54:44;;;;;;;7.32;5.40;;;;;;;5.42;100.00;97084.69;5094020;28;20760;-65
2021/11/17 04:57:18;;;;;;;6.72;5.60;;;;;;;5.63;100.00;97082.06;5113408;28;20407;-65
2021/11/17 04:59:51;;;;;;;7.20;5.55;;;;;;;5.55;100.00;97087.41;5097490;28;20463;-65
2021/11/17 05:02:43;;;;;;;7.13;5.30;;;;;;;5.51;100.00;97083.59;5094165;28;20914;-65
2021/11/17 05:05:59;;;;;;;6.35;5.25;;;;;;;5.67;100.00;97093.72;5095428;28;20418;-65
2021/11/17 05:08:48;;;;;;;6.20;5.38;;;;;;;5.70;100.00;97082.13;4998064;28;20874;-65
2021/11/17 05:11:35;;;;;;;6.00;5.03;;;;;;;5.63;100.00;97092.47;5086112;28;20961;-65
2021/11/17 05:14:09;;;;;;;6.20;5.13;;;;;;;5.71;100.00;97087.13;5110165;28;20441;-65
2021/11/17 05:17:07;;;;;;;7.07;5.35;;;;;;;5.58;100.00;97096.63;5114183;28;20937;-65
2021/11/17 05:19:53;;;;;;;6.82;5.53;;;;;;;5.76;100.00;97094.38;5068235;28;20416;-65
2021/11/17 05:22:52;;;;;;;7.68;5.55;;;;;;;5.60;100.00;97102.44;5110421;28;20398;-66
2021/11/17 05:25:36;;;;;;;7.33;5.33;;;;;;;5.59;100.00;97104.25;5093651;28;20906;-65
2021/11/17 05:28:29;;;;;;;7.97;5.20;;;;;;;5.52;100.00;97103.38;5095192;28;20392;-65
2021/11/17 05:31:29;;;;;;;6.00;5.00;;;;;;;5.60;100.00;97113.66;5095733;28;20496;-65
2021/11/17 05:33:57;;;;;;;7.37;5.10;;;;;;;5.71;100.00;97114.94;5110822;28;20411;-66
2021/11/17 05:36:46;;;;;;;6.57;4.90;;;;;;;5.65;100.00;97098.28;5109671;28;20386;-65
2021/11/17 05:39:33;;;;;;;6.97;5.47;;;;;;;5.75;100.00;97105.75;5093127;28;20906;-65
2021/11/17 05:42:17;;;;;;;7.05;5.40;;;;;;;5.77;100.00;97102.00;5109505;28;20392;-66
2021/11/17 05:45:09;;;;;;;7.28;5.45;;;;;;;5.76;100.00;97104.78;5093304;28;20401;-65
2021/11/17 05:47:56;;;;;;;6.77;5.60;;;;;;;5.75;100.00;97111.78;5091780;28;20400;-65
2021/11/17 05:50:27;;;;;;;7.53;5.32;;;;;;;5.78;100.00;97118.41;5093143;28;20781;-65
2021/11/17 05:52:58;;;;;;;6.10;4.93;;;;;;;5.63;100.00;97112.50;5099875;28;20400;-65
2021/11/17 05:55:53;;;;;;;5.65;4.80;;;;;;;5.74;100.00;97122.38;5102003;28;20792;-65
2021/11/17 05:58:21;;;;;;;5.50;4.90;;;;;;;5.68;100.00;97116.13;5079280;28;20410;-66
2021/11/17 06:00:55;;;;;;;6.80;5.15;;;;;;;5.77;100.00;97119.41;5090497;28;20839;-65
2021/11/17 06:03:30;;;;;;;7.55;5.55;;;;;;;5.70;100.00;97129.72;5095087;28;20409;-65
2021/11/17 06:05:55;;;;;;;6.22;5.10;;;;;;;5.93;100.00;97139.16;5098052;28;20408;-65
2021/11/17 06:08:20;;;;;;;6.80;5.40;;;;;;;5.90;100.00;97131.75;5112681;28;20407;-64
2021/11/17 06:10:49;;;;;;;5.60;4.97;;;;;;;5.74;100.00;97136.16;5091186;28;20463;-65
2021/11/17 06:13:16;;;;;;;6.68;5.53;;;;;;;5.89;100.00;97138.72;5058426;28;20954;-65
2021/11/17 06:15:44;;;;;;;7.20;5.32;;;;;;;5.70;100.00;97145.34;5091870;28;20413;-66
2021/11/17 06:18:13;;;;;;;8.45;6.28;;;;;;;5.68;100.00;97141.31;5092113;28;20496;-65
2021/11/17 06:20:40;;;;;;;6.55;5.25;;;;;;;5.65;100.00;97141.69;5092200;28;20463;-65
2021/11/17 06:23:10;;;;;;;7.28;5.68;;;;;;;5.70;100.00;97152.31;5110698;28;20401;-65
2021/11/17 06:25:41;;;;;;;7.90;5.43;;;;;;;5.46;100.00;97153.53;5112186;28;20385;-65
2021/11/17 06:28:07;;;;;;;6.63;5.22;;;;;;;5.58;100.00;97149.41;5101059;28;20408;-66
2021/11/17 06:30:38;;;;;;;6.30;5.10;;;;;;;5.51;100.00;97150.38;5091875;28;20428;-65
2021/11/17 06:33:04;;;;;;;7.55;5.80;;;;;;;5.50;100.00;97152.16;5091064;28;20881;-65
2021/11/17 06:35:30;;;;;;;6.82;5.30;;;;;;;5.52;100.00;97159.78;5091247;28;20797;-65
2021/11/17 06:37:56;;;;;;;6.47;5.33;;;;;;;5.50;100.00;97159.16;5099628;28;20384;-65
2021/11/17 06:40:22;;;;;;;7.30;4.97;;;;;;;5.52;100.00;97163.16;5111825;28;20427;-66
2021/11/17 06:42:53;;;;;;;5.68;4.70;;;;;;;5.58;100.00;97165.03;5097490;28;20414;-66
2021/11/17 06:45:32;;;;;;;5.70;4.80;;;;;;;5.64;100.00;97173.88;5091703;28;20457;-66
2021/11/17 06:47:59;;;;;;;6.85;5.05;;;;;;;5.52;100.00;97172.78;5111380;28;20392;-66
2021/11/17 06:50:24;;;;;;;7.72;4.80;;;;;;;5.49;100.00;97180.94;5109606;28;20383;-67
2021/11/17 06:52:51;;;;;;;6.22;4.97;;;;;;;5.63;100.00;97170.47;5091825;28;20393;-66
2021/11/17 06:55:17;;;;;;;5.77;4.80;;;;;;;5.53;100.00;97174.38;5091060;28;20877;-66
2021/11/17 06:57:42;;;;;;;8.57;5.77;;;;;;;5.53;100.00;97179.56;5109260;28;20400;-66
2021/11/17 07:00:11;;;;;;;16.50;7.60;;;;;;;5.49;100.00;97184.34;5108992;28;20832;-67
2021/11/17 07:02:37;;;;;;;15.50;8.15;;;;;;;5.63;100.00;97180.88;5094875;28;20493;-66
2021/11/17 07:05:04;;;;;;;19.48;9.25;;;;;;;5.28;100.00;97181.72;5090821;28;20490;-66
2021/11/17 07:07:29;;;;;;;31.92;11.77;;;;;;;5.39;100.00;97182.03;5107000;28;20959;-66
2021/11/17 07:09:55;;;;;;;29.48;11.50;;;;;;;5.59;100.00;97181.44;5111208;28;20392;-66
2021/11/17 07:12:21;;;;;;;24.87;10.23;;;;;;;5.57;100.00;97189.44;5094467;28;20394;-66
2021/11/17 07:14:47;;;;;;;14.17;7.70;;;;;;;5.58;100.00;97193.63;5093365;28;20502;-66
2021/11/17 07:17:12;;;;;;;7.93;5.43;;;;;;;5.67;100.00;97200.31;5097107;28;20469;-67
2021/11/17 07:19:38;;;;;;;5.67;4.70;;;;;;;5.73;100.00;97206.59;5091040;28;20484;-66
2021/11/17 07:22:07;;;;;;;6.18;4.40;;;;;;;5.75;100.00;97215.78;5089540;28;20512;-66
2021/11/17 07:24:33;;;;;;;7.03;4.57;;;;;;;5.78;100.00;97210.25;5091238;28;20390;-66
2021/11/17 07:26:59;;;;;;;5.40;4.13;;;;;;;5.72;100.00;97217.97;5106447;28;20861;-66
2021/11/17 07:29:25;;;;;;;6.80;4.50;;;;;;;5.75;100.00;97220.19;5108207;28;20480;-67
2021/11/17 07:31:50;;;;;;;5.73;4.20;;;;;;;5.55;100.00;97227.00;5091705;28;20417;-68
2021/11/17 07:34:16;;;;;;;7.93;4.93;;;;;;;5.71;100.00;97222.38;5091749;28;20789;-64
2021/11/17 07:36:42;;;;;;;6.82;4.80;;;;;;;5.76;100.00;97225.22;5095627;28;20386;-65
2021/11/17 07:39:13;;;;;;;6.07;4.93;;;;;;;5.63;100.00;97229.50;5113836;28;20403;-64
2021/11/17 07:41:40;;;;;;;5.05;3.92;;;;;;;5.63;100.00;97234.69;5113930;28;20388;-65
2021/11/17 07:44:05;;;;;;;6.50;4.57;;;;;;;5.62;100.00;97235.69;5113602;28;20419;-64
2021/11/17 07:46:31;;;;;;;5.82;4.50;;;;;;;5.65;100.00;97237.88;5091298;28;20421;-65
2021/11/17 07:48:57;;;;;;;5.20;4.10;;;;;;;5.48;100.00;97239.91;5109952;28;20451;-65
2021/11/17 07:51:22;;;;;;;5.53;3.97;;;;;;;5.53;100.00;97242.75;5096534;28;20569;-65
2021/11/17 07:53:48;;;;;;;5.90;4.33;;;;;;;5.75;100.00;97241.00;5104927;28;20448;-64
2021/11/17 07:56:14;;;;;;;4.73;4.20;;;;;;;5.76;100.00;97243.41;5114793;28;20463;-65
2021/11/17 07:58:42;;;;;;;5.40;3.97;;;;;;;5.82;100.00;97247.88;5096579;28;20526;-66
2021/11/17 08:01:09;;;;;;;5.05;3.97;;;;;;;5.83;100.00;97251.28;5107699;28;20416;-65
2021/11/17 08:03:38;;;;;;;5.70;3.83;;;;;;;5.80;100.00;97249.84;5095843;28;20401;-65
2021/11/17 08:06:05;;;;;;;5.78;3.97;;;;;;;5.99;100.00;97256.28;5094872;28;21003;-65
2021/11/17 08:08:31;;;;;;;5.57;4.18;;;;;;;5.85;100.00;97254.53;5102887;28;20399;-65
2021/11/17 08:10:59;;;;;;;5.65;3.78;;;;;;;5.98;100.00;97257.25;5107733;28;20386;-65
2021/11/17 08:13:25;;;;;;;4.72;3.90;;;;;;;6.04;100.00;97258.31;5099005;28;20431;-65
2021/11/17 08:15:52;;;;;;;6.28;3.97;;;;;;;5.98;100.00;97259.06;5104170;28;20900;-65
2021/11/17 08:18:18;;;;;;;4.63;3.90;;;;;;;5.93;100.00;97257.03;5109909;28;20472;-66
2021/11/17 08:20:44;;;;;;;4.72;3.63;;;;;;;6.03;100.00;97272.31;5093336;28;20418;-65
2021/11/17 08:23:10;;;;;;;5.30;4.23;;;;;;;6.13;98.54;97270.22;5110364;28;20469;-65
2021/11/17 08:25:38;;;;;;;5.63;4.00;;;;;;;6.28;99.36;97273.56;5112292;28;20393;-66
2021/11/17 08:28:07;;;;;;;5.40;3.92;;;;;;;6.09;98.33;97280.19;5108947;28;20400;-66
2021/11/17 08:30:34;;;;;;;4.90;3.90;;;;;;;6.03;99.41;97273.13;5106112;28;20441;-65
2021/11/17 08:33:01;;;;;;;4.72;3.88;;;;;;;6.24;97.99;97273.13;5094105;28;20402;-65
2021/11/17 08:35:28;;;;;;;5.65;3.97;;;;;;;6.07;98.63;97271.78;5109885;28;20415;-65
2021/11/17 08:37:54;;;;;;;5.50;3.70;;;;;;;6.26;98.35;97268.53;5100531;28;20396;-66
2021/11/17 08:40:29;;;;;;;4.97;3.90;;;;;;;6.45;96.37;97268.91;5107596;28;20474;-66
2021/11/17 08:42:55;;;;;;;3.83;3.10;;;;;;;6.63;94.73;97275.22;5094025;28;20398;-65
2021/11/17 08:45:21;;;;;;;4.10;3.40;;;;;;;6.56;95.28;97273.59;5104529;28;20928;-65
2021/11/17 08:47:47;;;;;;;4.95;3.78;;;;;;;6.64;95.96;97282.06;5094174;28;20388;-65
2021/11/17 08:50:16;;;;;;;19.95;8.43;;;;;;;6.50;95.70;97275.16;5113655;28;20403;-66
2021/11/17 08:52:42;;;;;;;19.80;7.78;;;;;;;6.61;94.85;97281.63;5103085;28;20874;-65
2021/11/17 08:55:09;;;;;;;12.52;5.72;;;;;;;6.66;93.47;97277.47;5094015;28;20481;-65
2021/11/17 08:57:35;;;;;;;10.20;4.85;;;;;;;6.71;93.40;97276.09;5097139;28;20408;-65
2021/11/17 09:00:05;;;;;;;4.23;3.30;;;;;;;6.61;93.39;97269.41;5112974;28;20416;-65
2021/11/17 09:02:30;;;;;;;4.45;3.35;;;;;;;6.54;93.99;97270.34;5101575;28;20393;-65
2021/11/17 09:04:56;;;;;;;3.80;3.07;;;;;;;6.59;92.71;97273.19;5098111;28;20439;-67
2021/11/17 09:07:21;;;;;;;4.50;3.08;;;;;;;6.77;93.20;97275.31;5100302;28;20470;-65
2021/11/17 09:09:46;;;;;;;3.90;3.00;;;;;;;6.88;92.80;97269.59;5093180;28;20723;-65
2021/11/17 09:12:12;;;;;;;3.35;3.05;;;;;;;6.85;92.31;97275.19;5093766;28;20378;-65
2021/11/17 09:14:38;;;;;;;3.80;3.00;;;;;;;6.88;92.39;97286.03;5099220;28;20390;-65
2021/11/17 09:17:05;;;;;;;3.55;3.00;;;;;;;6.92;91.87;97278.63;5097860;28;20393;-66
2021/11/17 09:19:30;;;;;;;3.88;2.90;;;;;;;6.92;91.71;97296.88;5113341;28;20516;-65
2021/11/17 09:21:56;;;;;;;3.22;2.72;;;;;;;6.68;92.55;97298.13;5112749;28;20480;-66
2021/11/17 09:24:22;;;;;;;2.53;2.33;;;;;;;6.37;92.78;97297.66;5098092;28;20451;-67
2021/11/17 09:26:51;;;;;;;2.77;2.10;;;;;;;6.06;94.25;97300.56;5112311;28;20492;-65
2021/11/17 09:29:17;;;;;;;2.22;2.03;;;;;;;5.45;96.67;97305.28;5094879;28;20420;-65
2021/11/17 09:31:45;;;;;;;2.67;2.03;;;;;;;5.65;96.68;97308.09;5101774;28;20394;-65
2021/11/17 09:34:11;;;;;;;2.25;2.05;;;;;;;5.65;97.18;97311.50;5105458;28;20511;-66
2021/11/17 09:36:38;;;;;;;2.07;1.80;;;;;;;5.21;100.00;97311.56;5089215;28;20738;-65
2021/11/17 09:39:05;;;;;;;2.70;1.87;;;;;;;5.18;100.00;97311.94;5106116;28;20388;-65
2021/11/17 09:41:35;;;;;;;2.17;1.98;;;;;;;5.40;100.00;97324.03;5112455;28;20762;-66
2021/11/17 09:44:14;;;;;;;2.88;2.00;;;;;;;5.14;100.00;97325.44;5105026;28;20400;-65
2021/11/17 09:46:43;;;;;;;2.70;2.17;;;;;;;5.32;100.00;97328.50;5112838;28;20872;-65
2021/11/17 09:49:20;;;;;;;4.10;2.88;;;;;;;5.28;100.00;97328.06;5100757;28;20396;-65
2021/11/17 09:51:52;;;;;;;10.15;4.60;;;;;;;5.52;100.00;97329.53;5092131;28;20402;-65
2021/11/17 09:54:32;;;;;;;13.90;5.10;;;;;;;5.83;100.00;97322.31;5092047;28;20857;-65
2021/11/17 09:57:11;;;;;;;10.18;4.45;;;;;;;5.78;99.40;97329.88;5092070;28;20418;-65
2021/11/17 09:59:51;;;;;;;11.40;4.45;;;;;;;5.67;100.00;97326.94;5097559;28;20404;-65
2021/11/17 10:02:59;;;;;;;13.38;5.28;;;;;;;5.70;100.00;97332.56;5100323;28;20469;-66
2021/11/17 10:14:14;;;;;;;2.15;1.95;;;;;;;5.73;99.66;97337.41;5111984;28;20896;-66
2021/11/17 10:16:40;;;;;;;1.73;1.63;;;;;;;5.71;98.83;97342.00;5093533;28;20399;-66
2021/11/17 10:19:28;;;;;;;2.35;1.70;;;;;;;5.90;98.12;97345.84;5089847;28;20919;-66
2021/11/17 10:22:09;;;;;;;2.80;1.60;;;;;;;5.99;96.04;97341.31;5091953;28;20435;-66
2021/11/17 10:24:45;;;;;;;2.05;1.80;;;;;;;6.11;95.33;97345.06;5106971;28;20396;-66
2021/11/17 10:27:13;;;;;;;3.78;1.80;;;;;;;6.05;94.07;97341.41;5099713;28;20471;-66
2021/11/17 10:29:53;;;;;;;1.70;1.60;;;;;;;6.15;93.63;97341.91;5100581;28;20504;-65
2021/11/17 10:32:23;;;;;;;2.08;1.90;;;;;;;6.19;93.33;97344.94;5087892;28;20396;-67
2021/11/17 10:34:51;;;;;;;2.20;2.00;;;;;;;5.88;93.70;97347.81;5075890;28;20396;-65
2021/11/17 10:37:37;;;;;;;1.73;1.63;;;;;;;6.40;92.10;97351.97;5109992;28;20389;-66
2021/11/17 10:40:14;;;;;;;1.77;1.65;;;;;;;5.89;92.21;97349.44;5106015;28;20408;-67
2021/11/17 10:42:41;;;;;;;2.13;1.77;;;;;;;6.11;92.50;97353.69;5101926;28;20407;-66
2021/11/17 10:45:09;;;;;;;2.67;1.75;;;;;;;6.02;91.73;97346.19;5099575;28;20393;-66
2021/11/17 10:47:38;;;;;;;1.67;1.58;;;;;;;6.08;92.88;97343.63;5099639;28;20733;-66
2021/11/17 10:50:03;;;;;;;1.85;1.70;;;;;;;6.29;92.33;97329.84;5111170;28;20856;-67
2021/11/17 10:52:57;;;;;;;2.97;1.80;;;;;;;6.42;91.18;97336.94;5111287;28;20437;-66
2021/11/17 10:55:31;;;;;;;1.52;1.42;;;;;;;6.39;90.51;97332.13;5101210;28;20741;-66
2021/11/17 10:57:57;;;;;;;1.60;1.50;;;;;;;6.73;88.19;97332.22;5106849;28;20485;-65
2021/11/17 11:00:39;;;;;;;1.60;1.50;;;;;;;6.61;87.45;97331.13;5091015;28;20878;-68
2021/11/17 11:03:07;;;;;;;1.93;1.80;;;;;;;6.64;89.62;97328.13;5109988;28;20399;-66
2021/11/17 11:05:37;;;;;;;1.70;1.60;;;;;;;6.68;88.42;97324.97;5102856;28;20440;-66
2021/11/17 11:08:11;;;;;;;1.58;1.48;;;;;;;6.53;88.03;97323.41;5100785;28;20459;-66
2021/11/17 11:10:41;;;;;;;2.70;1.48;;;;;;;6.55;87.58;97330.06;5105347;28;20818;-66
2021/11/17 11:13:11;;;;;;;1.70;1.60;;;;;;;6.07;88.31;97320.41;5091910;28;20438;-68
2021/11/17 11:15:43;;;;;;;1.63;1.52;;;;;;;6.30;89.08;97313.22;5111800;28;20407;-65
2021/11/17 11:18:09;;;;;;;1.73;1.40;;;;;;;6.52;88.61;97311.41;5099153;28;20397;-66
2021/11/17 11:20:53;;;;;;;2.17;1.60;;;;;;;6.55;89.05;97318.84;5091225;28;20402;-66
2021/11/17 11:23:26;;;;;;;1.90;1.80;;;;;;;6.78;88.49;97316.03;5107040;28;20392;-66
2021/11/17 11:26:09;;;;;;;1.80;1.50;;;;;;;6.96;87.71;97326.78;5103058;28;20405;-66
2021/11/17 11:28:39;;;;;;;1.52;1.40;;;;;;;7.34;84.08;97322.81;5091349;28;20434;-66
2021/11/17 11:31:06;;;;;;;1.50;1.40;;;;;;;7.07;83.76;97334.88;5108343;28;20404;-66
2021/11/17 11:33:35;;;;;;;1.50;1.40;;;;;;;6.94;86.34;97340.00;5108749;28;20400;-66
2021/11/17 11:36:10;;;;;;;1.63;1.50;;;;;;;7.05;87.48;97336.06;5110986;28;20879;-66
2021/11/17 11:38:51;;;;;;;1.40;1.30;;;;;;;6.72;84.46;97342.81;5104362;28;20477;-66
2021/11/17 11:41:19;;;;;;;1.75;1.33;;;;;;;6.56;86.46;97346.50;5091752;28;20409;-66
2021/11/17 11:43:46;;;;;;;1.20;1.20;;;;;;;6.65;85.32;97342.75;5109619;28;20974;-66
2021/11/17 11:46:29;;;;;;;1.63;1.33;;;;;;;6.44;88.53;97348.78;5105293;28;20401;-66
2021/11/17 11:49:03;;;;;;;1.38;1.27;;;;;;;6.56;87.26;97341.28;5089593;28;20389;-66
2021/11/17 11:51:37;;;;;;;1.20;1.10;;;;;;;6.50;85.55;97339.44;5097686;28;20388;-67
2021/11/17 11:54:14;;;;;;;1.48;0.98;;;;;;;6.73;84.10;97340.03;5089242;28;20814;-66
2021/11/17 11:56:48;;;;;;;1.15;1.15;;;;;;;6.48;85.34;97338.81;5091006;28;20383;-66
2021/11/17 11:59:26;;;;;;;1.40;1.30;;;;;;;6.61;83.83;97337.13;5094829;28;20450;-68
2021/11/17 12:02:08;;;;;;;1.45;1.35;;;;;;;6.60;83.75;97338.13;5099649;28;20815;-67
2021/11/17 12:04:40;;;;;;;1.10;1.10;;;;;;;6.51;84.17;97334.06;5075392;28;20394;-66
2021/11/17 12:07:11;;;;;;;1.40;1.30;;;;;;;6.70;84.41;97335.19;5091361;28;20394;-67
2021/11/17 12:09:51;;;;;;;1.00;1.00;;;;;;;6.73;83.10;97337.44;5083525;28;20386;-66
2021/11/17 12:12:22;;;;;;;1.20;1.20;;;;;;;6.83;82.29;97344.91;5104000;28;20417;-66
2021/11/17 12:14:52;;;;;;;1.10;1.10;;;;;;;6.83;82.19;97340.50;5090410;28;20397;-66
2021/11/17 12:17:27;;;;;;;1.05;1.05;;;;;;;6.99;80.62;97344.63;5097222;28;20900;-66
2021/11/17 12:19:56;;;;;;;1.10;1.10;;;;;;;7.14;81.58;97342.72;5090039;28;20418;-67
2021/11/17 12:22:48;;;;;;;1.25;1.15;;;;;;;7.13;80.85;97343.75;5095915;28;20386;-66
2021/11/17 12:25:30;;;;;;;1.55;1.20;;;;;;;7.11;79.29;97343.13;5108521;28;20744;-66
2021/11/17 12:28:05;;;;;;;1.10;1.10;;;;;;;7.31;79.16;97338.81;5106103;28;20465;-66
2021/11/17 12:30:55;;;;;;;1.33;1.25;;;;;;;6.75;81.05;97350.25;5096103;28;20401;-66
2021/11/17 12:33:30;;;;;;;1.30;1.20;;;;;;;6.79;80.95;97339.28;5094547;28;20402;-68
2021/11/17 12:36:17;;;;;;;1.17;1.15;;;;;;;6.66;81.39;97347.78;5094222;28;20691;-66
2021/11/17 12:38:44;;;;;;;1.20;1.20;;;;;;;6.18;81.18;97344.16;5094498;28;20455;-66
2021/11/17 12:41:24;;;;;;;1.52;1.30;;;;;;;6.37;83.17;97345.31;5092319;28;20426;-66
2021/11/17 12:44:09;;;;;;;1.40;1.30;;;;;;;6.39;82.81;97332.94;5096870;28;20390;-66
2021/11/17 12:46:47;;;;;;;1.30;1.30;;;;;;;6.62;82.71;97338.75;5093634;28;20404;-66
2021/11/17 12:49:35;;;;;;;1.23;1.17;;;;;;;6.59;81.60;97340.91;5108645;28;20389;-66
2021/11/17 12:52:13;;;;;;;1.10;1.10;;;;;;;6.63;82.88;97334.34;5095167;28;20518;-69
2021/11/17 12:54:50;;;;;;;1.20;1.20;;;;;;;6.71;82.25;97339.41;5094604;28;20492;-67
2021/11/17 12:57:30;;;;;;;1.30;1.30;;;;;;;6.52;82.80;97337.47;5091608;28;20405;-64
2021/11/17 13:00:19;;;;;;;1.23;1.23;;;;;;;6.56;81.88;97341.28;5108081;28;20492;-65
2021/11/17 13:02:55;;;;;;;1.48;1.38;;;;;;;6.46;82.05;97343.41;5100104;28;20407;-64
2021/11/17 13:05:26;;;;;;;1.33;1.23;;;;;;;6.59;83.38;97344.31;5096076;28;20468;-64
2021/11/17 13:08:02;;;;;;;1.30;1.20;;;;;;;6.68;82.78;97350.22;5108702;28;20389;-64
2021/11/17 13:10:36;;;;;;;1.50;1.40;;;;;;;6.79;81.80;97351.50;5110097;28;20400;-65
2021/11/17 13:13:16;;;;;;;1.30;1.20;;;;;;;6.76;81.91;97347.47;5091403;28;20411;-65
2021/11/17 13:15:50;;;;;;;1.25;1.20;;;;;;;6.77;80.77;97337.84;5113038;28;20485;-63
2021/11/17 13:18:45;;;;;;;1.10;1.10;;;;;;;6.57;81.45;97354.13;5112961;28;20487;-65
2021/11/17 13:21:29;;;;;;;1.20;1.20;;;;;;;6.61;81.98;97350.16;5056009;28;20518;-66
2021/11/17 13:24:22;;;;;;;1.20;1.10;;;;;;;6.54;82.01;97348.47;5106496;28;20460;-66
2021/11/17 13:27:12;;;;;;;1.20;1.20;;;;;;;6.25;83.17;97339.81;5100057;28;20877;-66
2021/11/17 13:30:08;;;;;;;1.20;1.10;;;;;;;6.44;83.64;97348.78;5100258;28;20531;-66
2021/11/17 13:32:38;;;;;;;1.40;1.30;;;;;;;6.17;81.69;97347.75;5107189;28;20933;-66
2021/11/17 13:35:37;;;;;;;1.17;1.10;;;;;;;6.19;83.25;97350.94;5092128;28;20481;-66
2021/11/17 13:38:17;;;;;;;1.27;1.17;;;;;;;6.32;83.30;97355.50;5093637;28;20926;-66
2021/11/17 13:40:45;;;;;;;1.30;1.20;;;;;;;6.45;81.58;97353.03;5092480;28;20915;-66
2021/11/17 13:43:12;;;;;;;1.10;1.10;;;;;;;6.72;81.24;97345.44;5093327;28;20481;-66
2021/11/17 13:45:39;;;;;;;1.10;1.10;;;;;;;6.84;80.26;97349.94;5100399;28;20391;-65
2021/11/17 13:48:05;;;;;;;1.40;1.30;;;;;;;6.64;80.62;97365.41;5107859;28;20517;-67
2021/11/17 13:50:35;;;;;;;2.05;1.48;;;;;;;6.43;82.20;97362.81;5092671;28;20401;-65
2021/11/17 13:53:03;;;;;;;1.30;1.25;;;;;;;6.38;81.42;97372.97;5096750;28;20427;-66
2021/11/17 13:55:32;;;;;;;1.35;1.27;;;;;;;6.32;80.97;97363.28;5111219;28;20388;-65
2021/11/17 13:57:58;;;;;;;1.40;1.30;;;;;;;6.54;81.25;97369.31;5096856;28;20401;-65
2021/11/17 14:00:24;;;;;;;1.50;1.40;;;;;;;6.43;81.97;97362.81;5090712;28;20406;-65
2021/11/17 14:02:50;;;;;;;1.20;1.20;;;;;;;6.52;80.94;97361.69;5093548;28;20410;-65
2021/11/17 14:05:18;;;;;;;1.50;1.40;;;;;;;6.50;81.99;97355.06;5091930;28;20489;-66
2021/11/17 14:07:45;;;;;;;1.50;1.40;;;;;;;6.62;81.36;97359.59;5090515;28;20916;-66
2021/11/17 14:10:12;;;;;;;1.50;1.40;;;;;;;6.75;80.52;97358.06;5093793;28;20400;-65
2021/11/17 14:12:38;;;;;;;1.77;1.60;;;;;;;6.54;79.51;97364.91;5106499;28;20395;-66
2021/11/17 14:15:05;;;;;;;2.08;1.75;;;;;;;6.60;79.58;97371.97;5096978;28;20436;-66
2021/11/17 14:17:31;;;;;;;1.90;1.80;;;;;;;6.62;78.64;97367.41;5102004;28;20497;-69
2021/11/17 14:19:57;;;;;;;1.80;1.70;;;;;;;6.46;80.02;97370.25;5093024;28;20493;-66
2021/11/17 14:22:23;;;;;;;1.90;1.80;;;;;;;6.55;79.67;97368.31;5100538;28;20434;-65
2021/11/17 14:24:51;;;;;;;1.75;1.65;;;;;;;6.60;80.31;97369.38;5092722;28;20379;-66
2021/11/17 14:27:17;;;;;;;1.90;1.80;;;;;;;6.58;80.37;97370.53;5111527;28;20499;-65
2021/11/17 14:30:10;;;;;;;1.90;1.80;;;;;;;6.59;81.45;97377.38;5089454;28;20417;-66
2021/11/17 14:32:40;;;;;;;1.88;1.77;;;;;;;6.50;81.27;97371.50;5089591;28;20439;-66
2021/11/17 14:35:08;;;;;;;2.30;1.95;;;;;;;6.63;81.30;97366.38;5109045;28;20461;-65
2021/11/17 14:37:34;;;;;;;2.00;1.90;;;;;;;6.56;81.19;97369.94;5093879;28;20399;-65
2021/11/17 14:39:59;;;;;;;2.00;1.90;;;;;;;6.45;82.28;97370.44;5112068;28;20812;-66
2021/11/17 14:42:25;;;;;;;2.85;2.10;;;;;;;6.62;82.90;97370.00;5091597;28;20471;-66
2021/11/17 14:44:52;;;;;;;2.30;2.10;;;;;;;6.78;82.16;97370.72;5090948;28;20401;-65
2021/11/17 14:47:18;;;;;;;2.40;2.20;;;;;;;6.69;82.47;97375.25;5091172;28;20931;-66